sensor_id;sensor_type;location;lat;lon;timestamp;P1;durP1;ratioP1;P2;durP2;ratioP2
51732;SDS011;39139;53.144;6.244;2024-03-08T00:00:15;43.00;;;24.15;;
51732;SDS011;39139;53.144;6.244;2024-03-08T00:02:44;41.28;;;23.75;;
51732;SDS011;39139;53.144;6.244;2024-03-08T00:05:11;36.65;;;23.05;;
51732;SDS011;39139;53.144;6.244;2024-03-08T00:07:38;41.80;;;24.85;;
51732;SDS011;39139;53.144;6.244;2024-03-08T00:10:04;39.35;;;22.77;;
51732;SDS011;39139;53.144;6.244;2024-03-08T00:12:32;43.28;;;24.83;;
51732;SDS011;39139;53.144;6.244;2024-03-08T00:14:58;43.60;;;25.00;;
51732;SDS011;39139;53.144;6.244;2024-03-08T00:17:23;40.00;;;22.60;;
51732;SDS011;39139;53.144;6.244;2024-03-08T00:19:50;38.95;;;24.15;;
51732;SDS011;39139;53.144;6.244;2024-03-08T00:22:16;40.08;;;23.92;;
51732;SDS011;39139;53.144;6.244;2024-03-08T00:24:42;44.38;;;25.25;;
51732;SDS011;39139;53.144;6.244;2024-03-08T00:27:08;36.75;;;22.10;;
51732;SDS011;39139;53.144;6.244;2024-03-08T00:29:34;45.13;;;24.40;;
51732;SDS011;39139;53.144;6.244;2024-03-08T00:32:00;42.05;;;24.55;;
51732;SDS011;39139;53.144;6.244;2024-03-08T00:34:26;41.78;;;25.33;;
51732;SDS011;39139;53.144;6.244;2024-03-08T00:36:52;42.85;;;25.95;;
51732;SDS011;39139;53.144;6.244;2024-03-08T00:39:18;41.05;;;25.85;;
51732;SDS011;39139;53.144;6.244;2024-03-08T00:41:47;45.58;;;25.52;;
51732;SDS011;39139;53.144;6.244;2024-03-08T00:44:13;44.78;;;25.27;;
51732;SDS011;39139;53.144;6.244;2024-03-08T00:46:39;42.03;;;25.02;;
51732;SDS011;39139;53.144;6.244;2024-03-08T00:49:04;46.38;;;26.55;;
51732;SDS011;39139;53.144;6.244;2024-03-08T00:51:31;47.55;;;26.63;;
51732;SDS011;39139;53.144;6.244;2024-03-08T00:53:57;45.50;;;26.73;;
51732;SDS011;39139;53.144;6.244;2024-03-08T00:56:23;47.33;;;26.65;;
51732;SDS011;39139;53.144;6.244;2024-03-08T00:58:49;43.60;;;25.60;;
51732;SDS011;39139;53.144;6.244;2024-03-08T01:01:16;46.75;;;27.65;;
51732;SDS011;39139;53.144;6.244;2024-03-08T01:03:43;50.13;;;28.08;;
51732;SDS011;39139;53.144;6.244;2024-03-08T01:06:09;42.47;;;24.98;;
51732;SDS011;39139;53.144;6.244;2024-03-08T01:08:34;45.35;;;25.02;;
51732;SDS011;39139;53.144;6.244;2024-03-08T01:11:03;47.75;;;27.75;;
51732;SDS011;39139;53.144;6.244;2024-03-08T01:13:31;47.53;;;28.63;;
51732;SDS011;39139;53.144;6.244;2024-03-08T01:15:57;54.38;;;28.85;;
51732;SDS011;39139;53.144;6.244;2024-03-08T01:18:22;46.20;;;29.58;;
51732;SDS011;39139;53.144;6.244;2024-03-08T01:20:48;55.03;;;30.98;;
51732;SDS011;39139;53.144;6.244;2024-03-08T01:23:14;46.90;;;27.50;;
51732;SDS011;39139;53.144;6.244;2024-03-08T01:25:39;49.70;;;25.77;;
51732;SDS011;39139;53.144;6.244;2024-03-08T01:28:06;44.53;;;26.27;;
51732;SDS011;39139;53.144;6.244;2024-03-08T01:30:32;50.70;;;27.75;;
51732;SDS011;39139;53.144;6.244;2024-03-08T01:32:59;50.70;;;30.00;;
51732;SDS011;39139;53.144;6.244;2024-03-08T01:35:25;52.72;;;30.10;;
51732;SDS011;39139;53.144;6.244;2024-03-08T01:37:52;53.58;;;27.73;;
51732;SDS011;39139;53.144;6.244;2024-03-08T01:40:18;58.50;;;32.47;;
51732;SDS011;39139;53.144;6.244;2024-03-08T01:42:43;56.30;;;30.20;;
51732;SDS011;39139;53.144;6.244;2024-03-08T01:45:09;55.42;;;31.27;;
51732;SDS011;39139;53.144;6.244;2024-03-08T01:47:35;53.00;;;31.20;;
51732;SDS011;39139;53.144;6.244;2024-03-08T01:50:02;54.97;;;30.38;;
51732;SDS011;39139;53.144;6.244;2024-03-08T01:52:29;49.65;;;29.15;;
51732;SDS011;39139;53.144;6.244;2024-03-08T01:54:57;49.45;;;29.83;;
51732;SDS011;39139;53.144;6.244;2024-03-08T01:57:26;57.65;;;31.85;;
51732;SDS011;39139;53.144;6.244;2024-03-08T01:59:53;59.97;;;32.42;;
51732;SDS011;39139;53.144;6.244;2024-03-08T02:02:20;50.13;;;28.00;;
51732;SDS011;39139;53.144;6.244;2024-03-08T02:04:48;51.53;;;32.65;;
51732;SDS011;39139;53.144;6.244;2024-03-08T02:07:13;60.28;;;33.78;;
51732;SDS011;39139;53.144;6.244;2024-03-08T02:09:39;54.53;;;32.55;;
51732;SDS011;39139;53.144;6.244;2024-03-08T02:12:05;61.22;;;33.50;;
51732;SDS011;39139;53.144;6.244;2024-03-08T02:14:33;57.22;;;31.13;;
51732;SDS011;39139;53.144;6.244;2024-03-08T02:17:02;56.38;;;29.45;;
51732;SDS011;39139;53.144;6.244;2024-03-08T02:19:28;58.00;;;31.77;;
51732;SDS011;39139;53.144;6.244;2024-03-08T02:21:53;56.85;;;30.75;;
51732;SDS011;39139;53.144;6.244;2024-03-08T02:24:19;55.13;;;28.45;;
51732;SDS011;39139;53.144;6.244;2024-03-08T02:26:45;59.28;;;33.13;;
51732;SDS011;39139;53.144;6.244;2024-03-08T02:29:11;57.92;;;31.17;;
51732;SDS011;39139;53.144;6.244;2024-03-08T02:31:37;57.35;;;31.83;;
51732;SDS011;39139;53.144;6.244;2024-03-08T02:34:04;53.00;;;30.30;;
51732;SDS011;39139;53.144;6.244;2024-03-08T02:36:30;57.97;;;32.53;;
51732;SDS011;39139;53.144;6.244;2024-03-08T02:38:59;60.63;;;32.88;;
51732;SDS011;39139;53.144;6.244;2024-03-08T02:41:27;61.92;;;32.33;;
51732;SDS011;39139;53.144;6.244;2024-03-08T02:43:53;64.30;;;32.92;;
51732;SDS011;39139;53.144;6.244;2024-03-08T02:46:20;53.33;;;30.98;;
51732;SDS011;39139;53.144;6.244;2024-03-08T02:48:46;56.92;;;31.80;;
51732;SDS011;39139;53.144;6.244;2024-03-08T02:51:12;54.33;;;30.77;;
51732;SDS011;39139;53.144;6.244;2024-03-08T02:53:38;60.85;;;31.77;;
51732;SDS011;39139;53.144;6.244;2024-03-08T02:56:04;59.88;;;32.63;;
51732;SDS011;39139;53.144;6.244;2024-03-08T02:58:33;63.42;;;32.55;;
51732;SDS011;39139;53.144;6.244;2024-03-08T03:00:59;60.95;;;33.70;;
51732;SDS011;39139;53.144;6.244;2024-03-08T03:03:25;55.45;;;31.88;;
51732;SDS011;39139;53.144;6.244;2024-03-08T03:05:51;56.38;;;31.20;;
51732;SDS011;39139;53.144;6.244;2024-03-08T03:08:20;58.53;;;32.05;;
51732;SDS011;39139;53.144;6.244;2024-03-08T03:10:46;55.90;;;30.02;;
51732;SDS011;39139;53.144;6.244;2024-03-08T03:13:12;57.92;;;31.00;;
51732;SDS011;39139;53.144;6.244;2024-03-08T03:15:39;65.43;;;35.03;;
51732;SDS011;39139;53.144;6.244;2024-03-08T03:18:06;57.30;;;31.63;;
51732;SDS011;39139;53.144;6.244;2024-03-08T03:20:33;55.88;;;31.38;;
51732;SDS011;39139;53.144;6.244;2024-03-08T03:23:02;54.20;;;31.15;;
51732;SDS011;39139;53.144;6.244;2024-03-08T03:25:28;61.00;;;31.73;;
51732;SDS011;39139;53.144;6.244;2024-03-08T03:27:58;54.65;;;30.83;;
51732;SDS011;39139;53.144;6.244;2024-03-08T03:30:25;60.13;;;30.63;;
51732;SDS011;39139;53.144;6.244;2024-03-08T03:32:58;57.53;;;31.15;;
51732;SDS011;39139;53.144;6.244;2024-03-08T03:35:31;55.97;;;30.20;;
51732;SDS011;39139;53.144;6.244;2024-03-08T03:37:57;58.22;;;29.95;;
51732;SDS011;39139;53.144;6.244;2024-03-08T03:40:35;61.55;;;32.00;;
51732;SDS011;39139;53.144;6.244;2024-03-08T03:43:02;61.22;;;31.88;;
51732;SDS011;39139;53.144;6.244;2024-03-08T03:45:28;63.88;;;33.13;;
51732;SDS011;39139;53.144;6.244;2024-03-08T03:47:54;55.78;;;30.88;;
51732;SDS011;39139;53.144;6.244;2024-03-08T03:50:20;59.60;;;30.05;;
51732;SDS011;39139;53.144;6.244;2024-03-08T03:52:47;61.03;;;31.10;;
51732;SDS011;39139;53.144;6.244;2024-03-08T03:55:13;57.58;;;31.88;;
51732;SDS011;39139;53.144;6.244;2024-03-08T03:57:39;57.60;;;31.35;;
51732;SDS011;39139;53.144;6.244;2024-03-08T04:00:05;51.25;;;27.48;;
51732;SDS011;39139;53.144;6.244;2024-03-08T04:02:35;55.60;;;31.02;;
51732;SDS011;39139;53.144;6.244;2024-03-08T04:05:03;54.97;;;30.70;;
51732;SDS011;39139;53.144;6.244;2024-03-08T04:07:30;54.25;;;28.55;;
51732;SDS011;39139;53.144;6.244;2024-03-08T04:09:55;54.15;;;29.70;;
51732;SDS011;39139;53.144;6.244;2024-03-08T04:12:21;55.67;;;30.30;;
51732;SDS011;39139;53.144;6.244;2024-03-08T04:14:48;51.75;;;30.30;;
51732;SDS011;39139;53.144;6.244;2024-03-08T04:17:13;60.50;;;30.73;;
51732;SDS011;39139;53.144;6.244;2024-03-08T04:19:39;53.80;;;31.08;;
51732;SDS011;39139;53.144;6.244;2024-03-08T04:22:08;50.67;;;28.17;;
51732;SDS011;39139;53.144;6.244;2024-03-08T04:24:33;60.80;;;30.63;;
51732;SDS011;39139;53.144;6.244;2024-03-08T04:26:59;60.83;;;31.27;;
51732;SDS011;39139;53.144;6.244;2024-03-08T04:29:25;52.20;;;27.67;;
51732;SDS011;39139;53.144;6.244;2024-03-08T04:31:51;54.47;;;29.45;;
51732;SDS011;39139;53.144;6.244;2024-03-08T04:34:19;54.10;;;29.50;;
51732;SDS011;39139;53.144;6.244;2024-03-08T04:36:46;56.50;;;29.15;;
51732;SDS011;39139;53.144;6.244;2024-03-08T04:39:13;53.72;;;31.25;;
51732;SDS011;39139;53.144;6.244;2024-03-08T04:41:39;51.10;;;28.30;;
51732;SDS011;39139;53.144;6.244;2024-03-08T04:44:05;55.47;;;28.83;;
51732;SDS011;39139;53.144;6.244;2024-03-08T04:46:31;57.40;;;30.48;;
51732;SDS011;39139;53.144;6.244;2024-03-08T04:48:56;51.80;;;30.98;;
51732;SDS011;39139;53.144;6.244;2024-03-08T04:51:24;45.90;;;27.13;;
51732;SDS011;39139;53.144;6.244;2024-03-08T04:53:50;59.13;;;31.98;;
51732;SDS011;39139;53.144;6.244;2024-03-08T04:56:16;50.55;;;27.67;;
51732;SDS011;39139;53.144;6.244;2024-03-08T04:58:41;55.75;;;29.60;;
51732;SDS011;39139;53.144;6.244;2024-03-08T05:01:07;51.88;;;27.33;;
51732;SDS011;39139;53.144;6.244;2024-03-08T05:03:35;47.53;;;27.20;;
51732;SDS011;39139;53.144;6.244;2024-03-08T05:06:01;51.13;;;28.75;;
51732;SDS011;39139;53.144;6.244;2024-03-08T05:08:27;53.72;;;29.02;;
51732;SDS011;39139;53.144;6.244;2024-03-08T05:10:52;53.40;;;28.80;;
51732;SDS011;39139;53.144;6.244;2024-03-08T05:13:19;48.08;;;26.25;;
51732;SDS011;39139;53.144;6.244;2024-03-08T05:15:47;50.15;;;27.52;;
51732;SDS011;39139;53.144;6.244;2024-03-08T05:18:14;53.33;;;29.63;;
51732;SDS011;39139;53.144;6.244;2024-03-08T05:20:40;52.72;;;27.08;;
51732;SDS011;39139;53.144;6.244;2024-03-08T05:23:06;51.13;;;29.10;;
51732;SDS011;39139;53.144;6.244;2024-03-08T05:25:33;48.03;;;27.10;;
51732;SDS011;39139;53.144;6.244;2024-03-08T05:27:58;50.28;;;27.95;;
51732;SDS011;39139;53.144;6.244;2024-03-08T05:30:24;48.05;;;27.23;;
51732;SDS011;39139;53.144;6.244;2024-03-08T05:32:50;52.22;;;28.50;;
51732;SDS011;39139;53.144;6.244;2024-03-08T05:35:15;47.38;;;28.48;;
51732;SDS011;39139;53.144;6.244;2024-03-08T05:37:41;49.28;;;26.73;;
51732;SDS011;39139;53.144;6.244;2024-03-08T05:40:10;47.72;;;26.15;;
51732;SDS011;39139;53.144;6.244;2024-03-08T05:42:35;49.88;;;27.98;;
51732;SDS011;39139;53.144;6.244;2024-03-08T05:45:02;50.15;;;29.25;;
51732;SDS011;39139;53.144;6.244;2024-03-08T05:47:31;54.72;;;27.25;;
51732;SDS011;39139;53.144;6.244;2024-03-08T05:50:00;46.80;;;28.23;;
51732;SDS011;39139;53.144;6.244;2024-03-08T05:52:26;49.20;;;27.17;;
51732;SDS011;39139;53.144;6.244;2024-03-08T05:54:51;47.13;;;26.85;;
51732;SDS011;39139;53.144;6.244;2024-03-08T05:57:17;41.63;;;24.00;;
51732;SDS011;39139;53.144;6.244;2024-03-08T05:59:43;49.40;;;25.70;;
51732;SDS011;39139;53.144;6.244;2024-03-08T06:02:09;47.83;;;27.77;;
51732;SDS011;39139;53.144;6.244;2024-03-08T06:04:34;45.70;;;26.13;;
51732;SDS011;39139;53.144;6.244;2024-03-08T06:07:00;50.95;;;26.73;;
51732;SDS011;39139;53.144;6.244;2024-03-08T06:09:28;53.85;;;26.10;;
51732;SDS011;39139;53.144;6.244;2024-03-08T06:11:54;50.47;;;24.65;;
51732;SDS011;39139;53.144;6.244;2024-03-08T06:14:20;45.03;;;23.92;;
51732;SDS011;39139;53.144;6.244;2024-03-08T06:16:46;42.20;;;24.42;;
51732;SDS011;39139;53.144;6.244;2024-03-08T06:19:12;51.53;;;26.88;;
51732;SDS011;39139;53.144;6.244;2024-03-08T06:21:38;48.55;;;26.77;;
51732;SDS011;39139;53.144;6.244;2024-03-08T06:24:04;48.22;;;28.70;;
51732;SDS011;39139;53.144;6.244;2024-03-08T06:26:30;45.42;;;25.80;;
51732;SDS011;39139;53.144;6.244;2024-03-08T06:28:56;46.60;;;26.85;;
51732;SDS011;39139;53.144;6.244;2024-03-08T06:31:22;51.65;;;27.33;;
51732;SDS011;39139;53.144;6.244;2024-03-08T06:33:48;44.92;;;25.38;;
51732;SDS011;39139;53.144;6.244;2024-03-08T06:36:18;47.05;;;27.70;;
51732;SDS011;39139;53.144;6.244;2024-03-08T06:38:45;42.38;;;23.00;;
51732;SDS011;39139;53.144;6.244;2024-03-08T06:41:11;45.75;;;23.92;;
51732;SDS011;39139;53.144;6.244;2024-03-08T06:43:43;41.00;;;24.27;;
51732;SDS011;39139;53.144;6.244;2024-03-08T06:46:09;47.83;;;22.92;;
51732;SDS011;39139;53.144;6.244;2024-03-08T06:48:37;47.92;;;26.55;;
51732;SDS011;39139;53.144;6.244;2024-03-08T06:51:03;52.47;;;25.95;;
51732;SDS011;39139;53.144;6.244;2024-03-08T06:53:30;44.70;;;23.90;;
51732;SDS011;39139;53.144;6.244;2024-03-08T06:55:56;45.55;;;26.27;;
51732;SDS011;39139;53.144;6.244;2024-03-08T06:58:22;47.13;;;24.55;;
51732;SDS011;39139;53.144;6.244;2024-03-08T07:00:48;42.42;;;23.85;;
51732;SDS011;39139;53.144;6.244;2024-03-08T07:03:17;47.15;;;25.33;;
51732;SDS011;39139;53.144;6.244;2024-03-08T07:05:43;45.42;;;23.17;;
51732;SDS011;39139;53.144;6.244;2024-03-08T07:08:09;45.60;;;24.30;;
51732;SDS011;39139;53.144;6.244;2024-03-08T07:10:34;48.50;;;24.52;;
51732;SDS011;39139;53.144;6.244;2024-03-08T07:13:02;41.47;;;25.00;;
51732;SDS011;39139;53.144;6.244;2024-03-08T07:15:28;48.25;;;26.15;;
51732;SDS011;39139;53.144;6.244;2024-03-08T07:17:53;46.58;;;26.25;;
51732;SDS011;39139;53.144;6.244;2024-03-08T07:20:19;50.83;;;26.45;;
51732;SDS011;39139;53.144;6.244;2024-03-08T07:22:46;43.15;;;25.27;;
51732;SDS011;39139;53.144;6.244;2024-03-08T07:25:12;43.25;;;25.00;;
51732;SDS011;39139;53.144;6.244;2024-03-08T07:27:52;45.28;;;27.27;;
51732;SDS011;39139;53.144;6.244;2024-03-08T07:30:19;42.33;;;24.30;;
51732;SDS011;39139;53.144;6.244;2024-03-08T07:33:05;42.55;;;25.95;;
51732;SDS011;39139;53.144;6.244;2024-03-08T07:35:32;46.35;;;27.00;;
51732;SDS011;39139;53.144;6.244;2024-03-08T07:37:58;45.13;;;27.00;;
51732;SDS011;39139;53.144;6.244;2024-03-08T07:40:27;45.63;;;23.67;;
51732;SDS011;39139;53.144;6.244;2024-03-08T07:42:53;45.92;;;26.40;;
51732;SDS011;39139;53.144;6.244;2024-03-08T07:45:19;42.50;;;24.58;;
51732;SDS011;39139;53.144;6.244;2024-03-08T07:47:44;43.40;;;25.63;;
51732;SDS011;39139;53.144;6.244;2024-03-08T07:50:10;41.70;;;26.80;;
51732;SDS011;39139;53.144;6.244;2024-03-08T07:52:36;41.88;;;25.35;;
51732;SDS011;39139;53.144;6.244;2024-03-08T07:55:02;43.15;;;25.15;;
51732;SDS011;39139;53.144;6.244;2024-03-08T07:57:29;38.63;;;24.02;;
51732;SDS011;39139;53.144;6.244;2024-03-08T07:59:55;41.80;;;26.27;;
51732;SDS011;39139;53.144;6.244;2024-03-08T08:02:21;41.30;;;24.48;;
51732;SDS011;39139;53.144;6.244;2024-03-08T08:04:46;39.88;;;25.02;;
51732;SDS011;39139;53.144;6.244;2024-03-08T08:07:14;39.55;;;25.55;;
51732;SDS011;39139;53.144;6.244;2024-03-08T08:09:40;39.38;;;26.27;;
51732;SDS011;39139;53.144;6.244;2024-03-08T08:12:10;40.75;;;26.25;;
51732;SDS011;39139;53.144;6.244;2024-03-08T08:14:37;39.90;;;26.60;;
51732;SDS011;39139;53.144;6.244;2024-03-08T08:17:04;35.72;;;25.25;;
51732;SDS011;39139;53.144;6.244;2024-03-08T08:19:30;40.47;;;25.65;;
51732;SDS011;39139;53.144;6.244;2024-03-08T08:21:57;39.13;;;27.00;;
51732;SDS011;39139;53.144;6.244;2024-03-08T08:24:23;37.90;;;25.58;;
51732;SDS011;39139;53.144;6.244;2024-03-08T08:26:48;35.22;;;27.33;;
51732;SDS011;39139;53.144;6.244;2024-03-08T08:29:14;35.58;;;26.40;;
51732;SDS011;39139;53.144;6.244;2024-03-08T08:31:40;35.90;;;25.85;;
51732;SDS011;39139;53.144;6.244;2024-03-08T08:34:05;40.30;;;28.55;;
51732;SDS011;39139;53.144;6.244;2024-03-08T08:36:32;36.85;;;27.60;;
51732;SDS011;39139;53.144;6.244;2024-03-08T08:38:59;35.95;;;27.42;;
51732;SDS011;39139;53.144;6.244;2024-03-08T08:41:24;39.92;;;29.08;;
51732;SDS011;39139;53.144;6.244;2024-03-08T08:43:50;35.83;;;25.65;;
51732;SDS011;39139;53.144;6.244;2024-03-08T08:46:19;33.45;;;26.95;;
51732;SDS011;39139;53.144;6.244;2024-03-08T08:48:46;33.75;;;23.70;;
51732;SDS011;39139;53.144;6.244;2024-03-08T08:51:12;32.55;;;26.17;;
51732;SDS011;39139;53.144;6.244;2024-03-08T08:53:41;31.08;;;22.50;;
51732;SDS011;39139;53.144;6.244;2024-03-08T08:56:15;34.17;;;28.08;;
51732;SDS011;39139;53.144;6.244;2024-03-08T08:58:43;32.45;;;27.90;;
51732;SDS011;39139;53.144;6.244;2024-03-08T09:01:09;35.10;;;24.58;;
51732;SDS011;39139;53.144;6.244;2024-03-08T09:03:37;37.03;;;27.77;;
51732;SDS011;39139;53.144;6.244;2024-03-08T09:06:05;33.72;;;28.00;;
51732;SDS011;39139;53.144;6.244;2024-03-08T09:08:35;30.60;;;26.50;;
51732;SDS011;39139;53.144;6.244;2024-03-08T09:11:01;36.35;;;26.75;;
51732;SDS011;39139;53.144;6.244;2024-03-08T09:13:27;35.25;;;28.35;;
51732;SDS011;39139;53.144;6.244;2024-03-08T09:15:52;43.72;;;29.50;;
51732;SDS011;39139;53.144;6.244;2024-03-08T09:18:18;34.17;;;28.45;;
51732;SDS011;39139;53.144;6.244;2024-03-08T09:20:44;30.67;;;24.27;;
51732;SDS011;39139;53.144;6.244;2024-03-08T09:23:10;32.22;;;24.42;;
51732;SDS011;39139;53.144;6.244;2024-03-08T09:25:36;32.08;;;24.73;;
51732;SDS011;39139;53.144;6.244;2024-03-08T09:28:02;32.10;;;24.88;;
51732;SDS011;39139;53.144;6.244;2024-03-08T09:30:28;34.47;;;26.08;;
51732;SDS011;39139;53.144;6.244;2024-03-08T09:32:54;34.38;;;24.63;;
51732;SDS011;39139;53.144;6.244;2024-03-08T09:35:19;31.63;;;24.35;;
51732;SDS011;39139;53.144;6.244;2024-03-08T09:37:45;28.70;;;23.92;;
51732;SDS011;39139;53.144;6.244;2024-03-08T09:40:12;31.45;;;26.13;;
51732;SDS011;39139;53.144;6.244;2024-03-08T09:42:40;31.48;;;23.58;;
51732;SDS011;39139;53.144;6.244;2024-03-08T09:45:10;27.67;;;22.00;;
51732;SDS011;39139;53.144;6.244;2024-03-08T09:47:40;28.88;;;25.40;;
51732;SDS011;39139;53.144;6.244;2024-03-08T09:50:07;28.83;;;23.48;;
51732;SDS011;39139;53.144;6.244;2024-03-08T09:52:37;28.92;;;22.25;;
51732;SDS011;39139;53.144;6.244;2024-03-08T09:55:06;30.27;;;24.63;;
51732;SDS011;39139;53.144;6.244;2024-03-08T09:57:32;29.70;;;25.52;;
51732;SDS011;39139;53.144;6.244;2024-03-08T10:00:00;31.65;;;23.35;;
51732;SDS011;39139;53.144;6.244;2024-03-08T10:02:28;35.45;;;24.95;;
51732;SDS011;39139;53.144;6.244;2024-03-08T10:04:54;31.92;;;24.48;;
51732;SDS011;39139;53.144;6.244;2024-03-08T10:07:23;34.80;;;25.30;;
51732;SDS011;39139;53.144;6.244;2024-03-08T10:09:51;30.20;;;24.63;;
51732;SDS011;39139;53.144;6.244;2024-03-08T10:12:17;35.47;;;25.40;;
51732;SDS011;39139;53.144;6.244;2024-03-08T10:14:44;32.80;;;23.55;;
51732;SDS011;39139;53.144;6.244;2024-03-08T10:17:11;30.05;;;23.00;;
51732;SDS011;39139;53.144;6.244;2024-03-08T10:19:37;31.40;;;24.65;;
51732;SDS011;39139;53.144;6.244;2024-03-08T10:22:04;33.40;;;24.33;;
51732;SDS011;39139;53.144;6.244;2024-03-08T10:24:30;37.53;;;25.77;;
51732;SDS011;39139;53.144;6.244;2024-03-08T10:26:59;36.15;;;24.67;;
51732;SDS011;39139;53.144;6.244;2024-03-08T10:29:27;31.77;;;25.92;;
51732;SDS011;39139;53.144;6.244;2024-03-08T10:31:53;30.98;;;24.52;;
51732;SDS011;39139;53.144;6.244;2024-03-08T10:34:21;30.40;;;25.63;;
51732;SDS011;39139;53.144;6.244;2024-03-08T10:36:48;30.88;;;24.48;;
51732;SDS011;39139;53.144;6.244;2024-03-08T10:41:52;33.38;;;23.08;;
51732;SDS011;39139;53.144;6.244;2024-03-08T10:50:29;28.85;;;23.98;;
51732;SDS011;39139;53.144;6.244;2024-03-08T10:52:32;29.45;;;25.27;;
51732;SDS011;39139;53.144;6.244;2024-03-08T10:54:59;29.52;;;25.55;;
51732;SDS011;39139;53.144;6.244;2024-03-08T10:57:27;30.48;;;24.75;;
51732;SDS011;39139;53.144;6.244;2024-03-08T10:59:53;32.72;;;26.17;;
51732;SDS011;39139;53.144;6.244;2024-03-08T11:02:20;34.85;;;26.85;;
51732;SDS011;39139;53.144;6.244;2024-03-08T11:04:49;29.83;;;24.90;;
51732;SDS011;39139;53.144;6.244;2024-03-08T11:07:16;33.20;;;26.83;;
51732;SDS011;39139;53.144;6.244;2024-03-08T11:09:45;31.63;;;26.95;;
51732;SDS011;39139;53.144;6.244;2024-03-08T11:12:23;39.13;;;27.67;;
51732;SDS011;39139;53.144;6.244;2024-03-08T11:15:00;32.83;;;26.05;;
51732;SDS011;39139;53.144;6.244;2024-03-08T11:20:02;29.08;;;23.30;;
51732;SDS011;39139;53.144;6.244;2024-03-08T11:22:41;34.03;;;25.92;;
51732;SDS011;39139;53.144;6.244;2024-03-08T11:25:30;32.15;;;22.77;;
51732;SDS011;39139;53.144;6.244;2024-03-08T11:28:20;32.67;;;25.60;;
51732;SDS011;39139;53.144;6.244;2024-03-08T11:33:24;33.60;;;26.25;;
51732;SDS011;39139;53.144;6.244;2024-03-08T11:36:11;38.10;;;27.73;;
51732;SDS011;39139;53.144;6.244;2024-03-08T11:38:41;30.88;;;25.00;;
51732;SDS011;39139;53.144;6.244;2024-03-08T11:41:09;33.83;;;27.25;;
51732;SDS011;39139;53.144;6.244;2024-03-08T11:43:39;33.65;;;25.02;;
51732;SDS011;39139;53.144;6.244;2024-03-08T11:46:08;35.38;;;26.10;;
51732;SDS011;39139;53.144;6.244;2024-03-08T11:48:34;37.40;;;27.20;;
51732;SDS011;39139;53.144;6.244;2024-03-08T11:51:03;31.52;;;24.35;;
51732;SDS011;39139;53.144;6.244;2024-03-08T11:53:30;33.03;;;25.95;;
51732;SDS011;39139;53.144;6.244;2024-03-08T11:56:17;33.97;;;26.45;;
51732;SDS011;39139;53.144;6.244;2024-03-08T11:58:52;34.10;;;26.77;;
51732;SDS011;39139;53.144;6.244;2024-03-08T12:01:19;36.38;;;28.63;;
51732;SDS011;39139;53.144;6.244;2024-03-08T12:03:44;36.25;;;25.35;;
51732;SDS011;39139;53.144;6.244;2024-03-08T12:06:35;35.22;;;26.15;;
51732;SDS011;39139;53.144;6.244;2024-03-08T12:09:04;31.58;;;26.15;;
51732;SDS011;39139;53.144;6.244;2024-03-08T12:11:34;34.60;;;27.08;;
51732;SDS011;39139;53.144;6.244;2024-03-08T12:14:02;33.88;;;27.67;;
51732;SDS011;39139;53.144;6.244;2024-03-08T12:16:28;33.45;;;25.65;;
51732;SDS011;39139;53.144;6.244;2024-03-08T12:18:54;35.35;;;27.83;;
51732;SDS011;39139;53.144;6.244;2024-03-08T12:21:20;35.22;;;25.33;;
51732;SDS011;39139;53.144;6.244;2024-03-08T12:23:50;34.13;;;27.42;;
51732;SDS011;39139;53.144;6.244;2024-03-08T12:26:34;34.25;;;25.05;;
51732;SDS011;39139;53.144;6.244;2024-03-08T12:31:53;33.05;;;24.30;;
51732;SDS011;39139;53.144;6.244;2024-03-08T12:34:20;33.67;;;23.38;;
51732;SDS011;39139;53.144;6.244;2024-03-08T12:36:50;31.35;;;26.33;;
51732;SDS011;39139;53.144;6.244;2024-03-08T12:39:19;33.13;;;25.90;;
51732;SDS011;39139;53.144;6.244;2024-03-08T12:41:52;32.60;;;24.88;;
51732;SDS011;39139;53.144;6.244;2024-03-08T12:44:18;33.25;;;23.73;;
51732;SDS011;39139;53.144;6.244;2024-03-08T12:46:46;31.13;;;23.08;;
51732;SDS011;39139;53.144;6.244;2024-03-08T12:49:13;38.25;;;23.42;;
51732;SDS011;39139;53.144;6.244;2024-03-08T12:51:42;40.33;;;24.80;;
51732;SDS011;39139;53.144;6.244;2024-03-08T12:54:08;31.52;;;24.30;;
51732;SDS011;39139;53.144;6.244;2024-03-08T12:56:34;35.92;;;27.80;;
51732;SDS011;39139;53.144;6.244;2024-03-08T12:59:02;38.25;;;27.85;;
51732;SDS011;39139;53.144;6.244;2024-03-08T13:01:29;37.67;;;29.90;;
51732;SDS011;39139;53.144;6.244;2024-03-08T13:03:57;37.53;;;27.50;;
51732;SDS011;39139;53.144;6.244;2024-03-08T13:06:27;35.55;;;28.38;;
51732;SDS011;39139;53.144;6.244;2024-03-08T13:08:54;32.00;;;25.63;;
51732;SDS011;39139;53.144;6.244;2024-03-08T13:11:23;30.85;;;23.50;;
51732;SDS011;39139;53.144;6.244;2024-03-08T13:16:16;34.55;;;26.35;;
51732;SDS011;39139;53.144;6.244;2024-03-08T13:18:44;35.58;;;25.60;;
51732;SDS011;39139;53.144;6.244;2024-03-08T13:21:10;33.67;;;25.77;;
51732;SDS011;39139;53.144;6.244;2024-03-08T13:23:39;30.38;;;24.73;;
51732;SDS011;39139;53.144;6.244;2024-03-08T13:26:09;28.58;;;22.60;;
51732;SDS011;39139;53.144;6.244;2024-03-08T13:28:40;28.45;;;21.75;;
51732;SDS011;39139;53.144;6.244;2024-03-08T13:31:14;33.15;;;22.60;;
51732;SDS011;39139;53.144;6.244;2024-03-08T13:33:43;33.80;;;25.15;;
51732;SDS011;39139;53.144;6.244;2024-03-08T13:36:11;33.03;;;25.30;;
51732;SDS011;39139;53.144;6.244;2024-03-08T13:38:45;33.90;;;24.17;;
51732;SDS011;39139;53.144;6.244;2024-03-08T13:41:11;27.92;;;22.48;;
51732;SDS011;39139;53.144;6.244;2024-03-08T13:43:39;32.20;;;24.38;;
51732;SDS011;39139;53.144;6.244;2024-03-08T13:46:10;27.08;;;22.42;;
51732;SDS011;39139;53.144;6.244;2024-03-08T13:48:36;30.85;;;23.55;;
51732;SDS011;39139;53.144;6.244;2024-03-08T13:53:32;31.35;;;22.27;;
51732;SDS011;39139;53.144;6.244;2024-03-08T13:55:58;27.58;;;21.23;;
51732;SDS011;39139;53.144;6.244;2024-03-08T13:58:25;31.80;;;21.65;;
51732;SDS011;39139;53.144;6.244;2024-03-08T14:00:51;31.73;;;24.00;;
51732;SDS011;39139;53.144;6.244;2024-03-08T14:03:17;29.55;;;22.05;;
51732;SDS011;39139;53.144;6.244;2024-03-08T14:05:43;31.33;;;24.13;;
51732;SDS011;39139;53.144;6.244;2024-03-08T14:08:10;28.48;;;20.27;;
51732;SDS011;39139;53.144;6.244;2024-03-08T14:10:37;28.75;;;22.85;;
51732;SDS011;39139;53.144;6.244;2024-03-08T14:13:03;30.85;;;21.00;;
51732;SDS011;39139;53.144;6.244;2024-03-08T14:15:33;28.50;;;21.08;;
51732;SDS011;39139;53.144;6.244;2024-03-08T14:17:59;26.52;;;22.13;;
51732;SDS011;39139;53.144;6.244;2024-03-08T14:20:26;27.42;;;22.40;;
51732;SDS011;39139;53.144;6.244;2024-03-08T14:22:55;28.27;;;21.77;;
51732;SDS011;39139;53.144;6.244;2024-03-08T14:25:21;29.33;;;20.77;;
51732;SDS011;39139;53.144;6.244;2024-03-08T14:27:49;28.33;;;22.40;;
51732;SDS011;39139;53.144;6.244;2024-03-08T14:30:28;26.05;;;20.80;;
51732;SDS011;39139;53.144;6.244;2024-03-08T14:33:06;27.38;;;21.98;;
51732;SDS011;39139;53.144;6.244;2024-03-08T14:35:37;25.38;;;20.42;;
51732;SDS011;39139;53.144;6.244;2024-03-08T14:38:03;27.90;;;17.63;;
51732;SDS011;39139;53.144;6.244;2024-03-08T14:40:33;24.88;;;18.05;;
51732;SDS011;39139;53.144;6.244;2024-03-08T14:42:59;24.02;;;17.23;;